createdAt,value
2018-10-16T00:01:31.436Z,99.90
2018-10-16T00:04:01.059Z,99.90
2018-10-16T00:06:31.753Z,99.90
2018-10-16T00:09:03.422Z,99.90
2018-10-16T00:11:33.402Z,99.90
2018-10-16T00:14:11.395Z,99.90
2018-10-16T00:16:41.158Z,99.90
2018-10-16T00:19:10.551Z,99.90
2018-10-16T00:21:40.382Z,99.90
2018-10-16T00:24:13.503Z,99.90
2018-10-16T00:26:42.793Z,99.90
2018-10-16T00:29:14.876Z,99.90
2018-10-16T00:31:44.429Z,99.90
2018-10-16T00:34:16.987Z,99.90
2018-10-16T00:36:48.993Z,99.90
2018-10-16T00:39:19.648Z,99.90
2018-10-16T00:41:54.111Z,99.90
2018-10-16T00:44:23.334Z,99.90
2018-10-16T00:46:52.563Z,99.90
2018-10-16T00:49:25.279Z,99.90
2018-10-16T00:51:54.573Z,99.90
2018-10-16T00:54:27.304Z,99.90
2018-10-16T00:56:56.923Z,99.90
2018-10-16T00:59:29.412Z,99.90
2018-10-16T01:01:58.666Z,99.90
2018-10-16T01:04:31.742Z,99.90
2018-10-16T01:07:01.693Z,99.90
2018-10-16T01:09:34.459Z,99.90
2018-10-16T01:12:04.055Z,99.90
2018-10-16T01:14:36.904Z,99.90
2018-10-16T01:17:06.698Z,99.90
2018-10-16T01:19:39.422Z,99.90
2018-10-16T01:22:08.944Z,99.90
2018-10-16T01:24:46.921Z,99.90
2018-10-16T01:27:17.606Z,99.90
2018-10-16T01:29:47.065Z,99.90
2018-10-16T01:32:16.572Z,99.90
2018-10-16T01:34:49.318Z,99.90
2018-10-16T01:37:18.549Z,99.90
2018-10-16T01:39:52.273Z,99.90
2018-10-16T01:42:21.455Z,99.90
2018-10-16T01:44:54.550Z,99.90
2018-10-16T01:47:24.087Z,99.90
2018-10-16T01:49:56.804Z,99.90
2018-10-16T01:52:26.132Z,99.90
2018-10-16T01:54:59.402Z,99.90
2018-10-16T01:57:28.907Z,99.90
2018-10-16T02:00:06.439Z,99.90
2018-10-16T02:02:36.000Z,99.90
2018-10-16T02:05:06.103Z,99.90
2018-10-16T02:07:35.675Z,99.90
2018-10-16T02:10:09.138Z,99.90
2018-10-16T02:12:38.372Z,99.90
2018-10-16T02:15:12.114Z,99.90
2018-10-16T02:17:41.583Z,99.90
2018-10-16T02:20:18.816Z,99.90
2018-10-16T02:22:48.923Z,99.90
2018-10-16T02:25:18.133Z,99.90
2018-10-16T02:27:47.682Z,99.90
2018-10-16T02:30:20.498Z,99.90
2018-10-16T02:32:50.379Z,99.90
2018-10-16T02:35:23.101Z,99.90
2018-10-16T02:37:53.793Z,99.90
2018-10-16T02:40:24.762Z,99.90
2018-10-16T02:42:56.083Z,99.90
2018-10-16T02:45:27.262Z,99.90
2018-10-16T02:47:56.945Z,99.90
2018-10-16T02:50:30.243Z,99.90
2018-10-16T02:52:59.927Z,99.90
2018-10-16T02:55:32.550Z,99.90
2018-10-16T02:58:02.236Z,99.90
2018-10-16T03:00:34.444Z,99.90
2018-10-16T03:03:03.651Z,99.90
2018-10-16T03:05:36.674Z,99.90
2018-10-16T03:08:05.999Z,99.90
2018-10-16T03:10:39.334Z,99.90
2018-10-16T03:13:08.952Z,99.90
2018-10-16T03:15:45.267Z,99.90
2018-10-16T03:18:14.443Z,99.90
2018-10-16T03:20:45.328Z,99.90
2018-10-16T03:23:14.577Z,99.90
2018-10-16T03:25:50.779Z,99.90
2018-10-16T03:28:20.308Z,99.90
2018-10-16T03:30:50.453Z,99.90
2018-10-16T03:35:41.798Z,99.90
2018-10-16T03:38:11.149Z,99.90
2018-10-16T03:40:40.346Z,99.90
2018-10-16T03:43:11.973Z,99.90
2018-10-16T03:45:41.164Z,99.90
2018-10-16T03:48:11.302Z,99.90
2018-10-16T03:50:41.809Z,99.90
2018-10-16T03:53:11.130Z,99.90
2018-10-16T03:55:40.375Z,99.90
2018-10-16T03:58:10.487Z,99.90
2018-10-16T04:00:39.726Z,99.90
2018-10-16T04:03:09.299Z,99.90
2018-10-16T04:05:39.180Z,99.90
2018-10-16T04:08:15.834Z,99.90
2018-10-16T04:10:45.046Z,99.90
2018-10-16T04:13:15.882Z,99.90
2018-10-16T04:15:45.107Z,99.90
2018-10-16T04:18:18.322Z,99.90
2018-10-16T04:20:47.804Z,99.90
2018-10-16T04:23:20.646Z,99.90
2018-10-16T04:25:49.880Z,99.90
2018-10-16T04:28:23.124Z,99.90
2018-10-16T04:30:52.601Z,99.90
2018-10-16T04:33:25.362Z,99.90
2018-10-16T04:35:54.595Z,99.90
2018-10-16T04:38:27.974Z,99.90
2018-10-16T04:40:57.179Z,99.90
2018-10-16T04:43:29.929Z,99.90
2018-10-16T04:45:59.800Z,99.90
2018-10-16T04:48:36.050Z,99.90
2018-10-16T04:51:05.688Z,99.90
2018-10-16T04:53:35.155Z,99.90
2018-10-16T04:56:04.668Z,99.90
2018-10-16T04:58:41.242Z,99.90
2018-10-16T05:01:10.681Z,99.90
2018-10-16T05:03:40.484Z,99.90
2018-10-16T05:06:10.005Z,99.90
2018-10-16T05:08:46.809Z,99.90
2018-10-16T05:11:16.758Z,99.90
2018-10-16T05:13:46.987Z,99.90
2018-10-16T05:16:16.220Z,99.90
2018-10-16T05:21:23.911Z,99.90
2018-10-16T05:23:53.488Z,99.90
2018-10-16T05:26:22.710Z,99.90
2018-10-16T05:28:55.042Z,99.90
2018-10-16T05:31:24.683Z,99.90
2018-10-16T05:33:57.930Z,99.90
2018-10-16T05:36:27.330Z,99.90
2018-10-16T05:39:00.060Z,99.90
2018-10-16T05:41:29.768Z,99.90
2018-10-16T05:44:03.930Z,99.90
2018-10-16T05:46:33.275Z,99.90
2018-10-16T05:49:06.222Z,99.90
2018-10-16T05:51:35.740Z,99.90
2018-10-16T05:54:12.310Z,99.90
2018-10-16T05:56:41.814Z,99.90
2018-10-16T05:59:14.698Z,99.90
2018-10-16T06:01:44.074Z,99.90
2018-10-16T06:04:16.920Z,99.90
2018-10-16T06:06:46.173Z,99.90
2018-10-16T06:09:22.792Z,99.90
2018-10-16T06:11:52.053Z,99.90
2018-10-16T06:14:21.413Z,99.90
2018-10-16T06:16:51.027Z,99.90
2018-10-16T06:19:24.310Z,99.90
2018-10-16T06:21:53.603Z,99.90
2018-10-16T06:24:26.716Z,99.90
2018-10-16T06:26:56.266Z,99.90
2018-10-16T06:29:29.806Z,99.90
2018-10-16T06:31:59.960Z,99.90
2018-10-16T06:34:30.662Z,99.90
2018-10-16T06:36:59.912Z,99.90
2018-10-16T06:39:32.787Z,99.90
2018-10-16T06:42:02.058Z,99.90
2018-10-16T06:44:35.436Z,99.90
2018-10-16T06:47:05.455Z,99.90
2018-10-16T06:49:38.672Z,99.90
2018-10-16T06:52:08.043Z,99.90
2018-10-16T06:54:41.094Z,99.90
2018-10-16T06:57:10.432Z,99.90
2018-10-16T06:59:43.446Z,99.90
2018-10-16T07:02:13.237Z,99.90
2018-10-16T07:04:49.805Z,99.90
2018-10-16T07:07:19.560Z,99.90
2018-10-16T07:09:49.225Z,99.90
2018-10-16T07:12:18.759Z,99.90
2018-10-16T07:14:52.268Z,99.90
2018-10-16T07:17:21.589Z,99.90
2018-10-16T07:19:58.229Z,99.90
2018-10-16T07:22:27.805Z,99.90
2018-10-16T07:24:57.435Z,99.90
2018-10-16T07:27:26.650Z,99.90
2018-10-16T07:30:00.923Z,99.90
2018-10-16T07:32:30.366Z,99.90
2018-10-16T07:35:08.750Z,99.90
2018-10-16T07:37:39.400Z,99.90
2018-10-16T07:40:10.182Z,99.90
2018-10-16T07:42:40.021Z,99.90
2018-10-16T07:45:10.969Z,99.90
2018-10-16T07:47:40.806Z,99.90
2018-10-16T07:50:17.891Z,99.90
2018-10-16T07:52:47.342Z,99.90
2018-10-16T07:55:17.503Z,99.90
2018-10-16T07:57:46.917Z,99.90
2018-10-16T08:00:20.046Z,99.90
2018-10-16T08:02:50.838Z,99.90
2018-10-16T08:05:21.545Z,99.90
2018-10-16T08:07:50.797Z,99.90
2018-10-16T08:10:23.707Z,99.90
2018-10-16T08:12:55.393Z,99.90
2018-10-16T08:15:26.334Z,99.90
2018-10-16T08:17:56.059Z,99.90
2018-10-16T08:20:32.630Z,99.90
2018-10-16T08:23:01.919Z,99.90
2018-10-16T08:25:32.641Z,99.90
2018-10-16T08:28:02.512Z,99.90
2018-10-16T08:30:33.992Z,99.90
2018-10-16T08:33:04.916Z,99.90
2018-10-16T08:35:35.938Z,99.90
2018-10-16T08:40:17.187Z,99.90
2018-10-16T08:42:57.482Z,99.90
2018-10-16T08:45:38.782Z,99.90
2018-10-16T08:48:18.884Z,99.90
2018-10-16T08:51:00.385Z,99.90
2018-10-16T08:53:30.667Z,99.90
2018-10-16T08:56:00.340Z,99.90
2018-10-16T08:58:29.631Z,99.90
2018-10-16T09:00:59.028Z,99.90
2018-10-16T09:03:28.815Z,99.90
2018-10-16T09:05:58.249Z,99.90
2018-10-16T09:08:27.575Z,99.90
2018-10-16T09:10:57.522Z,99.90
2018-10-16T09:13:27.864Z,99.90
2018-10-16T09:16:01.193Z,99.90
2018-10-16T09:21:09.937Z,99.90
2018-10-16T09:23:39.351Z,99.90
2018-10-16T09:26:09.143Z,99.90
2018-10-16T09:28:39.222Z,99.90
2018-10-16T09:31:09.103Z,99.90
2018-10-16T09:33:38.723Z,99.90
2018-10-16T09:36:15.991Z,99.90
2018-10-16T09:38:45.958Z,99.90
2018-10-16T09:41:15.731Z,99.40
2018-10-16T09:43:45.239Z,99.90
2018-10-16T09:46:17.948Z,98.40
2018-10-16T09:48:47.505Z,99.90
2018-10-16T09:51:20.510Z,99.90
2018-10-16T09:53:53.407Z,99.90
2018-10-16T09:56:23.235Z,99.90
2018-10-16T09:58:52.892Z,99.90
2018-10-16T10:01:31.332Z,98.50
2018-10-16T10:04:00.768Z,99.70
2018-10-16T10:06:30.589Z,99.90
2018-10-16T10:09:13.270Z,99.90
2018-10-16T10:11:42.849Z,99.90
2018-10-16T10:14:13.454Z,99.10
2018-10-16T10:16:43.114Z,99.90
2018-10-16T10:19:12.425Z,97.70
2018-10-16T10:21:42.208Z,96.90
2018-10-16T10:24:12.154Z,96.40
2018-10-16T10:26:41.928Z,99.90
2018-10-16T10:29:11.606Z,99.70
2018-10-16T10:31:40.951Z,97.80
2018-10-16T10:34:10.311Z,99.90
2018-10-16T10:36:43.019Z,99.90
2018-10-16T10:39:13.218Z,99.90
2018-10-16T10:41:49.852Z,98.70
2018-10-16T10:44:20.260Z,96.50
2018-10-16T10:46:49.562Z,95.90
2018-10-16T10:49:19.441Z,96.00
2018-10-16T10:51:51.229Z,95.60
2018-10-16T10:54:23.041Z,97.30
2018-10-16T10:56:54.792Z,99.60
2018-10-16T10:59:25.543Z,99.10
2018-10-16T11:01:58.903Z,99.90
2018-10-16T11:04:28.358Z,97.30
2018-10-16T11:07:00.564Z,98.30
2018-10-16T11:09:31.147Z,94.40
2018-10-16T11:12:03.624Z,94.80
2018-10-16T11:14:33.220Z,93.80
2018-10-16T11:17:07.685Z,96.10
2018-10-16T11:19:39.021Z,96.90
2018-10-16T11:22:08.405Z,96.20
2018-10-16T11:24:37.779Z,93.50
2018-10-16T11:27:16.396Z,93.10
2018-10-16T11:29:45.717Z,94.10
2018-10-16T11:32:15.357Z,92.30
2018-10-16T11:34:44.600Z,93.80
2018-10-16T11:37:16.774Z,90.90
2018-10-16T11:39:46.099Z,90.80
2018-10-16T11:42:18.940Z,92.20
2018-10-16T11:44:49.154Z,90.40
2018-10-16T11:47:22.694Z,90.10
2018-10-16T11:49:52.100Z,89.90
2018-10-16T11:52:23.803Z,90.10
2018-10-16T11:54:53.177Z,89.00
2018-10-16T11:57:25.940Z,89.20
2018-10-16T11:59:56.317Z,90.00
2018-10-16T12:02:28.235Z,88.60
2018-10-16T12:04:58.752Z,90.20
2018-10-16T12:07:31.696Z,89.90
2018-10-16T12:10:03.328Z,89.80
2018-10-16T12:12:33.827Z,90.10
2018-10-16T12:15:03.446Z,90.10
2018-10-16T12:17:41.533Z,93.10
2018-10-16T12:20:20.974Z,90.80
2018-10-16T12:22:50.463Z,90.80
2018-10-16T12:25:20.131Z,90.00
2018-10-16T12:27:49.410Z,91.10
2018-10-16T12:30:18.734Z,92.20
2018-10-16T12:32:49.114Z,89.10
2018-10-16T12:35:18.444Z,90.50
2018-10-16T12:37:48.169Z,88.00
2018-10-16T12:40:17.873Z,88.10
2018-10-16T12:42:50.164Z,87.70
2018-10-16T12:45:19.469Z,91.00
2018-10-16T12:47:52.812Z,92.10
2018-10-16T12:50:22.253Z,91.00
2018-10-16T12:52:59.355Z,92.50
2018-10-16T12:55:28.979Z,90.80
2018-10-16T12:57:58.585Z,90.30
2018-10-16T13:00:27.867Z,90.50
2018-10-16T13:03:02.187Z,90.00
2018-10-16T13:05:31.414Z,87.40
2018-10-16T13:08:10.558Z,89.90
2018-10-16T13:10:40.061Z,89.10
2018-10-16T13:13:09.635Z,87.70
2018-10-16T13:15:39.070Z,87.60
2018-10-16T13:18:12.065Z,86.00
2018-10-16T13:20:41.557Z,88.40
2018-10-16T13:25:42.669Z,86.90
2018-10-16T13:28:16.751Z,90.10
2018-10-16T13:30:46.046Z,93.00
2018-10-16T13:35:46.347Z,92.80
2018-10-16T13:38:20.661Z,92.30
2018-10-16T13:43:25.051Z,90.20
2018-10-16T13:45:54.809Z,91.80
2018-10-16T13:48:26.429Z,91.40
2018-10-16T13:50:56.413Z,90.00
2018-10-16T13:53:29.516Z,88.90
2018-10-16T13:55:58.804Z,91.10
2018-10-16T13:58:31.160Z,87.90
2018-10-16T14:01:00.774Z,87.30
2018-10-16T14:03:37.895Z,87.60
2018-10-16T14:06:07.457Z,89.50
2018-10-16T14:08:36.865Z,90.50
2018-10-16T14:11:06.233Z,89.50
2018-10-16T14:13:39.004Z,91.30
2018-10-16T14:16:09.262Z,92.10
2018-10-16T14:18:42.150Z,88.30
2018-10-16T14:21:12.251Z,90.00
2018-10-16T14:23:44.790Z,88.50
2018-10-16T14:26:14.151Z,89.60
2018-10-16T14:28:46.653Z,90.20
2018-10-16T14:31:16.155Z,89.00
2018-10-16T14:33:49.593Z,89.30
2018-10-16T14:36:20.200Z,89.60
2018-10-16T14:38:53.490Z,90.10
2018-10-16T14:41:23.191Z,89.70
2018-10-16T14:43:56.104Z,89.00
2018-10-16T14:46:25.484Z,90.10
2018-10-16T14:48:58.621Z,89.30
2018-10-16T14:51:28.297Z,89.80
2018-10-16T14:54:05.277Z,89.20
2018-10-16T14:56:35.440Z,90.00
2018-10-16T14:59:04.921Z,89.70
2018-10-16T15:01:34.265Z,89.70
2018-10-16T15:04:06.797Z,91.30
2018-10-16T15:06:37.277Z,90.50
2018-10-16T15:09:14.225Z,90.70
2018-10-16T15:11:44.272Z,90.10
2018-10-16T15:14:14.733Z,91.70
2018-10-16T15:16:44.392Z,91.70
2018-10-16T15:19:17.741Z,91.00
2018-10-16T15:21:47.108Z,90.90
2018-10-16T15:24:19.010Z,90.90
2018-10-16T15:26:48.387Z,90.80
2018-10-16T15:29:25.630Z,92.20
2018-10-16T15:31:56.684Z,91.90
2018-10-16T15:34:27.026Z,93.10
2018-10-16T15:36:56.450Z,94.30
2018-10-16T15:39:26.181Z,91.80
2018-10-16T15:41:55.883Z,93.80
2018-10-16T15:44:28.510Z,93.60
2018-10-16T15:46:58.475Z,93.80
2018-10-16T15:49:33.918Z,92.20
2018-10-16T15:52:03.591Z,92.80
2018-10-16T15:54:35.026Z,93.80
2018-10-16T15:57:04.491Z,93.70
2018-10-16T15:59:36.350Z,92.80
2018-10-16T16:02:06.312Z,94.40
2018-10-16T16:04:38.772Z,95.00
2018-10-16T16:07:08.181Z,92.40
2018-10-16T16:09:41.364Z,92.10
2018-10-16T16:12:10.891Z,93.50
2018-10-16T16:14:43.882Z,93.60
2018-10-16T16:17:13.238Z,94.40
2018-10-16T16:19:46.444Z,92.80
2018-10-16T16:22:16.688Z,94.10
2018-10-16T16:24:50.259Z,93.80
2018-10-16T16:27:19.607Z,93.80
2018-10-16T16:29:56.464Z,94.10
2018-10-16T16:32:26.731Z,93.60
2018-10-16T16:34:56.741Z,93.90
2018-10-16T16:37:27.074Z,93.40
2018-10-16T16:39:59.795Z,93.90
2018-10-16T16:42:30.602Z,94.00
2018-10-16T16:45:01.738Z,94.70
2018-10-16T16:47:31.353Z,94.70
2018-10-16T16:50:04.937Z,95.10
2018-10-16T16:52:34.569Z,95.40
2018-10-16T16:55:08.839Z,95.40
2018-10-16T16:57:38.162Z,95.40
2018-10-16T17:00:11.358Z,95.90
2018-10-16T17:02:41.370Z,95.80
2018-10-16T17:05:14.525Z,96.20
2018-10-16T17:07:44.416Z,96.30
2018-10-16T17:10:17.529Z,95.70
2018-10-16T17:12:46.980Z,96.00
2018-10-16T17:15:20.113Z,96.50
2018-10-16T17:17:49.814Z,96.90
2018-10-16T17:20:23.346Z,96.60
2018-10-16T17:22:52.666Z,97.10
2018-10-16T17:25:25.398Z,97.60
2018-10-16T17:27:54.806Z,96.80
2018-10-16T17:30:26.123Z,97.70
2018-10-16T17:32:55.531Z,98.00
2018-10-16T17:35:28.954Z,96.80
2018-10-16T17:37:58.440Z,97.30
2018-10-16T17:40:31.511Z,97.90
2018-10-16T17:43:01.183Z,97.60
2018-10-16T17:45:33.575Z,98.10
2018-10-16T17:48:03.256Z,98.10
2018-10-16T17:50:36.368Z,98.00
2018-10-16T17:53:05.791Z,98.10
2018-10-16T17:55:38.649Z,97.20
2018-10-16T17:58:08.834Z,98.10
2018-10-16T18:00:42.860Z,97.60
2018-10-16T18:03:13.493Z,98.00
2018-10-16T18:05:43.720Z,98.70
2018-10-16T18:08:13.134Z,99.00
2018-10-16T18:10:47.141Z,99.30
2018-10-16T18:13:16.780Z,99.20
2018-10-16T18:16:52.056Z,99.60
2018-10-16T18:19:21.398Z,98.80
2018-10-16T18:21:53.740Z,98.70
2018-10-16T18:24:23.961Z,98.10
2018-10-16T18:26:58.039Z,98.70
2018-10-16T18:29:28.112Z,98.80
2018-10-16T18:31:59.390Z,99.40
2018-10-16T18:34:29.175Z,99.60
2018-10-16T18:37:07.352Z,99.90
2018-10-16T18:39:37.174Z,99.90
2018-10-16T18:42:07.608Z,99.90
2018-10-16T18:44:37.306Z,99.90
2018-10-16T18:47:07.237Z,99.90
2018-10-16T18:49:37.068Z,99.90
2018-10-16T18:52:11.418Z,99.90
2018-10-16T18:54:40.739Z,99.90
2018-10-16T18:57:17.394Z,99.90
2018-10-16T18:59:47.188Z,99.90
2018-10-16T19:02:16.725Z,99.90
2018-10-16T19:04:46.249Z,99.90
2018-10-16T19:07:18.928Z,99.90
2018-10-16T19:09:49.322Z,99.90
2018-10-16T19:12:22.525Z,99.90
2018-10-16T19:14:52.478Z,99.90
2018-10-16T19:17:23.406Z,99.90
2018-10-16T19:19:52.933Z,99.90
2018-10-16T19:22:25.581Z,99.90
2018-10-16T19:24:55.057Z,99.90
2018-10-16T19:27:31.763Z,99.90
2018-10-16T19:30:01.431Z,99.90
2018-10-16T19:32:30.916Z,99.80
2018-10-16T19:35:00.386Z,99.70
2018-10-16T19:37:32.429Z,99.90
2018-10-16T19:40:01.899Z,99.90
2018-10-16T19:42:35.143Z,99.90
2018-10-16T19:45:05.648Z,99.90
2018-10-16T19:47:38.293Z,99.90
2018-10-16T19:50:08.583Z,99.90
2018-10-16T19:52:41.420Z,99.90
2018-10-16T19:55:11.737Z,99.90
2018-10-16T19:57:42.635Z,99.90
2018-10-16T20:00:12.844Z,99.90
2018-10-16T20:02:45.968Z,99.90
2018-10-16T20:05:15.373Z,99.90
2018-10-16T20:07:48.128Z,99.90
2018-10-16T20:10:18.433Z,99.90
2018-10-16T20:12:55.104Z,99.90
2018-10-16T20:15:24.973Z,99.90
2018-10-16T20:17:54.406Z,99.90
2018-10-16T20:20:23.833Z,99.90
2018-10-16T20:22:56.989Z,99.90
2018-10-16T20:25:26.968Z,99.90
2018-10-16T20:28:00.812Z,99.90
2018-10-16T20:30:33.594Z,99.90
2018-10-16T20:33:03.131Z,99.90
2018-10-16T20:35:32.676Z,99.90
2018-10-16T20:38:06.001Z,99.90
2018-10-16T20:40:35.625Z,99.90
2018-10-16T20:43:08.772Z,99.90
2018-10-16T20:45:38.973Z,99.90
2018-10-16T20:48:12.546Z,99.90
2018-10-16T20:50:42.001Z,99.90
2018-10-16T20:53:15.193Z,99.90
2018-10-16T20:55:44.839Z,99.90
2018-10-16T20:58:17.420Z,99.90
2018-10-16T21:00:47.428Z,99.90
2018-10-16T21:03:20.682Z,99.90
2018-10-16T21:05:50.204Z,99.90
2018-10-16T21:14:45.883Z,99.90
2018-10-16T21:17:15.594Z,99.90
2018-10-16T21:19:44.986Z,99.90
2018-10-16T21:22:15.609Z,99.90
2018-10-16T21:24:44.996Z,99.90
2018-10-16T21:27:14.365Z,99.90
2018-10-16T21:29:44.185Z,99.90
2018-10-16T21:32:13.629Z,99.90
2018-10-16T21:34:42.925Z,99.90
2018-10-16T21:37:12.643Z,99.90
2018-10-16T21:39:42.069Z,99.90
2018-10-16T21:42:11.486Z,99.90
2018-10-16T21:44:41.341Z,99.90
2018-10-16T21:47:10.764Z,99.90
2018-10-16T21:49:41.321Z,99.90
2018-10-16T21:52:13.039Z,99.90
2018-10-16T21:54:45.188Z,99.90
2018-10-16T21:57:14.625Z,99.90
2018-10-16T21:59:47.193Z,99.90
2018-10-16T22:02:21.517Z,99.90
2018-10-16T22:04:50.923Z,99.90
2018-10-16T22:07:20.575Z,99.90
2018-10-16T22:09:53.439Z,99.90
2018-10-16T22:12:22.791Z,99.90
2018-10-16T22:14:56.791Z,99.90
2018-10-16T22:17:26.149Z,99.90
2018-10-16T22:19:58.740Z,99.90
2018-10-16T22:22:28.088Z,99.90
2018-10-16T22:25:01.262Z,99.90
2018-10-16T22:27:30.940Z,99.90
2018-10-16T22:30:08.258Z,99.90
2018-10-16T22:32:37.768Z,99.90
2018-10-16T22:35:09.360Z,99.90
2018-10-16T22:37:38.848Z,99.90
2018-10-16T22:40:11.516Z,99.90
2018-10-16T22:42:40.899Z,99.90
2018-10-16T22:45:13.436Z,99.90
2018-10-16T22:47:42.734Z,99.90
2018-10-16T22:50:19.076Z,99.90
2018-10-16T22:52:48.846Z,99.90
2018-10-16T22:55:18.368Z,99.90
2018-10-16T22:57:47.668Z,99.90
2018-10-16T23:00:20.786Z,99.90
2018-10-16T23:02:50.084Z,99.90
2018-10-16T23:05:26.915Z,99.90
2018-10-16T23:07:56.606Z,99.90
2018-10-16T23:10:25.926Z,99.90
2018-10-16T23:13:00.522Z,99.90
2018-10-16T23:15:30.147Z,99.90
2018-10-16T23:17:59.982Z,99.90
2018-10-16T23:20:31.344Z,99.90
2018-10-16T23:23:01.017Z,99.90
2018-10-16T23:25:33.409Z,99.90
2018-10-16T23:28:02.909Z,99.90
2018-10-16T23:30:35.246Z,99.90
2018-10-16T23:33:04.521Z,99.90
2018-10-16T23:35:39.364Z,99.90
2018-10-16T23:38:08.937Z,99.90
2018-10-16T23:40:41.211Z,99.90
2018-10-16T23:43:10.592Z,99.90
2018-10-16T23:45:43.428Z,99.90
2018-10-16T23:48:13.026Z,99.90
2018-10-16T23:50:45.989Z,99.90
2018-10-16T23:53:15.229Z,99.90
2018-10-16T23:55:52.041Z,99.90
2018-10-16T23:58:21.289Z,99.90
